Time;durP1;ratioP1;P1;durP2;ratioP2;P2;SDS_P1;SDS_P2;PMS_P1;PMS_P2;Temp;Humidity;BMP_temperature;BMP_pressure;BME280_temperature;BME280_humidity;BME280_pressure;Samples;Min_cycle;Max_cycle;Signal;HPM_P1;HPM_P2
2022/06/19 00:01:40;;;;;;;11.43;1.85;;;15.30;99.90;;;;;;5074318;28;20086;-66
2022/06/19 00:04:09;;;;;;;8.18;1.73;;;15.30;99.90;;;;;;5076033;28;20037;-66
2022/06/19 00:06:36;;;;;;;10.57;2.08;;;15.20;99.90;;;;;;5075191;28;20043;-66
2022/06/19 00:09:03;;;;;;;14.10;2.20;;;15.30;99.90;;;;;;5074525;28;20123;-66
2022/06/19 00:11:29;;;;;;;11.68;1.42;;;15.30;99.90;;;;;;5075085;28;20043;-65
2022/06/19 00:13:55;;;;;;;9.60;1.88;;;15.20;99.90;;;;;;5074266;28;20478;-66
2022/06/19 00:16:21;;;;;;;10.40;2.22;;;15.30;99.90;;;;;;5057794;28;20040;-66
2022/06/19 00:18:46;;;;;;;11.98;2.20;;;;;;;;;;5073439;28;20032;-66
2022/06/19 00:21:15;;;;;;;10.23;1.75;;;15.20;99.90;;;;;;5057836;28;20044;-66
2022/06/19 00:23:42;;;;;;;12.25;2.00;;;15.20;99.90;;;;;;5075492;28;20067;-66
2022/06/19 00:26:07;;;;;;;12.23;2.65;;;15.20;99.90;;;;;;5088533;28;20032;-66
2022/06/19 00:28:33;;;;;;;11.60;2.00;;;15.20;99.90;;;;;;5073862;28;20150;-66
2022/06/19 00:30:59;;;;;;;11.45;2.17;;;15.20;99.90;;;;;;5075177;28;20629;-67
2022/06/19 00:33:24;;;;;;;11.18;2.30;;;15.40;99.90;;;;;;5076395;28;20504;-67
2022/06/19 00:35:50;;;;;;;10.38;1.95;;;;;;;;;;5075017;28;20043;-67
2022/06/19 00:38:16;;;;;;;12.63;2.50;;;15.40;99.90;;;;;;5074690;28;20101;-67
2022/06/19 00:40:41;;;;;;;9.65;1.67;;;15.20;99.90;;;;;;5076526;28;20072;-66
2022/06/19 00:43:07;;;;;;;12.15;2.38;;;15.30;99.90;;;;;;5075318;28;20043;-67
2022/06/19 00:45:42;;;;;;;9.45;1.88;;;16.00;99.90;;;;;;5072409;28;20037;-67
2022/06/19 00:48:22;;;;;;;7.13;1.40;;;15.30;99.90;;;;;;5071645;28;20044;-67
2022/06/19 00:50:50;;;;;;;8.98;1.40;;;15.10;99.90;;;;;;5057465;28;20108;-67
2022/06/19 00:53:44;;;;;;;13.90;1.90;;;15.20;99.90;;;;;;5074191;28;20082;-66
2022/06/19 00:56:18;;;;;;;10.95;2.33;;;15.30;99.90;;;;;;5068285;28;20056;-68
2022/06/19 00:58:46;;;;;;;8.80;1.93;;;15.10;99.90;;;;;;5059611;28;20036;-67
2022/06/19 01:01:16;;;;;;;7.57;1.60;;;15.10;99.90;;;;;;5074328;28;20772;-67
2022/06/19 01:03:47;;;;;;;8.35;1.50;;;15.10;99.90;;;;;;5073693;28;20115;-66
2022/06/19 01:06:13;;;;;;;9.32;2.00;;;15.00;99.90;;;;;;5073638;28;20040;-67
2022/06/19 01:08:39;;;;;;;7.53;1.30;;;;;;;;;;5075195;28;20037;-67
2022/06/19 01:11:05;;;;;;;13.57;2.05;;;15.10;99.90;;;;;;5073974;28;20064;-67
2022/06/19 01:13:32;;;;;;;8.18;1.77;;;15.30;99.90;;;;;;5074866;28;20033;-66
2022/06/19 01:15:59;;;;;;;9.40;1.75;;;15.10;99.90;;;;;;5074503;28;20036;-65
2022/06/19 01:18:25;;;;;;;7.28;1.10;;;15.10;99.90;;;;;;5072977;28;20053;-66
2022/06/19 01:21:00;;;;;;;9.27;1.13;;;15.10;99.90;;;;;;5074904;28;20115;-67
2022/06/19 01:24:01;;;;;;;4.72;1.25;;;15.10;99.90;;;;;;5073579;28;20506;-67
2022/06/19 01:26:28;;;;;;;9.25;1.80;;;15.20;99.90;;;;;;5060815;28;20078;-66
2022/06/19 01:28:56;;;;;;;5.65;1.60;;;14.90;99.90;;;;;;5073512;28;20052;-66
2022/06/19 01:31:46;;;;;;;9.43;1.90;;;14.90;99.90;;;;;;5073912;28;20040;-67
2022/06/19 01:34:27;;;;;;;5.78;1.38;;;14.80;99.90;;;;;;5056745;28;20051;-66
2022/06/19 01:37:13;;;;;;;7.35;1.60;;;15.00;99.90;;;;;;5064362;28;20055;-67
2022/06/19 01:39:48;;;;;;;8.88;1.48;;;14.70;99.90;;;;;;5074886;28;20441;-67
2022/06/19 01:42:14;;;;;;;12.32;2.50;;;;;;;;;;5075274;28;20032;-67
2022/06/19 01:44:42;;;;;;;7.30;1.33;;;14.80;99.90;;;;;;5056331;28;20058;-66
2022/06/19 01:47:08;;;;;;;10.30;1.75;;;;;;;;;;5077455;28;20123;-67
2022/06/19 01:49:36;;;;;;;11.50;1.63;;;14.80;99.90;;;;;;5067937;28;20049;-66
2022/06/19 01:52:06;;;;;;;12.85;2.05;;;14.90;99.90;;;;;;5088110;28;20055;-67
2022/06/19 01:54:37;;;;;;;10.40;2.08;;;14.90;99.90;;;;;;5073244;28;20044;-66
2022/06/19 01:57:09;;;;;;;11.00;1.80;;;14.80;99.90;;;;;;5072402;28;20048;-66
2022/06/19 01:59:36;;;;;;;14.02;2.22;;;14.90;99.90;;;;;;5058910;28;20088;-67
2022/06/19 02:02:05;;;;;;;12.82;2.13;;;14.90;99.90;;;;;;5073285;28;20036;-67
2022/06/19 02:04:31;;;;;;;8.98;1.85;;;14.80;99.90;;;;;;5087432;28;20417;-68
2022/06/19 02:07:01;;;;;;;8.57;2.58;;;14.70;99.90;;;;;;5073745;28;20037;-67
2022/06/19 02:09:27;;;;;;;17.52;2.00;;;14.80;99.90;;;;;;5074073;28;20036;-66
2022/06/19 02:11:54;;;;;;;9.75;1.80;;;14.70;99.90;;;;;;5075829;28;20036;-66
2022/06/19 02:14:20;;;;;;;18.83;2.70;;;14.70;99.90;;;;;;5075413;28;20448;-66
2022/06/19 02:16:47;;;;;;;11.80;1.75;;;14.80;99.90;;;;;;5074329;28;20112;-66
2022/06/19 02:19:14;;;;;;;11.23;2.35;;;;;;;;;;5074746;28;20032;-66
2022/06/19 02:21:43;;;;;;;14.63;2.22;;;14.70;99.90;;;;;;5074484;28;20104;-66
2022/06/19 02:24:11;;;;;;;15.38;2.03;;;14.60;99.90;;;;;;5073321;28;20033;-66
2022/06/19 02:26:40;;;;;;;10.30;2.40;;;14.50;99.90;;;;;;5056101;28;20115;-66
2022/06/19 02:29:11;;;;;;;13.40;3.03;;;14.50;99.90;;;;;;5056244;28;20044;-66
2022/06/19 02:31:38;;;;;;;16.13;3.28;;;14.70;99.90;;;;;;5073548;28;20048;-66
2022/06/19 02:34:08;;;;;;;15.35;2.10;;;14.50;99.90;;;;;;5073555;28;20091;-66
2022/06/19 02:36:43;;;;;;;12.57;2.30;;;14.60;99.90;;;;;;5073231;28;20570;-65
2022/06/19 02:39:30;;;;;;;11.63;2.38;;;14.70;99.90;;;;;;5073947;28;20474;-65
2022/06/19 02:42:16;;;;;;;15.80;2.60;;;14.80;99.90;;;;;;5078511;28;20402;-65
2022/06/19 02:44:43;;;;;;;10.25;1.92;;;14.70;99.90;;;;;;5078393;28;20039;-65
2022/06/19 02:47:09;;;;;;;15.23;2.13;;;14.60;99.90;;;;;;5077287;28;20047;-65
2022/06/19 02:49:35;;;;;;;10.55;2.08;;;14.40;99.90;;;;;;5078713;28;20120;-65
2022/06/19 02:52:02;;;;;;;15.27;3.17;;;14.40;99.90;;;;;;5076485;28;20068;-66
2022/06/19 02:54:28;;;;;;;15.70;2.20;;;14.50;99.90;;;;;;5072902;28;20075;-65
2022/06/19 02:56:54;;;;;;;12.82;2.65;;;14.50;99.90;;;;;;5050568;28;20056;-66
2022/06/19 02:59:20;;;;;;;20.40;2.40;;;;;;;;;;5090502;28;20075;-65
2022/06/19 03:01:45;;;;;;;15.82;3.20;;;14.40;99.90;;;;;;5076823;28;20041;-65
2022/06/19 03:04:20;;;;;;;18.38;3.15;;;14.40;99.90;;;;;;5078073;28;20044;-66
2022/06/19 03:06:46;;;;;;;17.55;2.78;;;14.40;99.90;;;;;;5077007;28;20486;-65
2022/06/19 03:09:12;;;;;;;12.45;3.00;;;15.30;99.90;;;;;;5078890;28;20040;-66
2022/06/19 03:11:38;;;;;;;20.70;2.90;;;14.40;99.90;;;;;;5076572;28;20039;-66
2022/06/19 03:14:04;;;;;;;14.60;2.25;;;14.40;99.90;;;;;;5077725;28;20051;-65
2022/06/19 03:16:29;;;;;;;14.68;2.75;;;14.30;99.90;;;;;;5059447;28;20406;-66
2022/06/19 03:18:57;;;;;;;13.07;3.05;;;14.40;99.90;;;;;;5072940;28;20491;-66
2022/06/19 03:21:23;;;;;;;15.50;2.47;;;14.30;99.90;;;;;;5075407;28;20044;-66
2022/06/19 03:23:48;;;;;;;11.85;2.30;;;14.40;99.90;;;;;;5076249;28;20086;-66
2022/06/19 03:26:14;;;;;;;19.25;2.63;;;14.40;99.90;;;;;;5076753;28;20043;-66
2022/06/19 03:28:39;;;;;;;18.85;2.95;;;14.50;99.90;;;;;;5077971;28;20071;-65
2022/06/19 03:31:05;;;;;;;19.48;2.78;;;14.30;99.90;;;;;;5059713;28;20120;-65
2022/06/19 03:33:30;;;;;;;14.60;2.00;;;14.40;99.90;;;;;;5076089;28;20044;-65
2022/06/19 03:35:56;;;;;;;14.35;2.17;;;14.20;99.90;;;;;;5077409;28;20048;-65
2022/06/19 03:38:22;;;;;;;16.23;2.38;;;14.50;99.90;;;;;;5083479;28;20086;-67
2022/06/19 03:40:47;;;;;;;14.90;2.60;;;14.50;99.90;;;;;;5101948;28;20052;-67
2022/06/19 03:43:13;;;;;;;16.65;2.13;;;14.30;99.90;;;;;;5069530;28;20030;-67
2022/06/19 03:45:39;;;;;;;13.80;2.33;;;14.10;99.90;;;;;;5085672;28;20036;-67
2022/06/19 03:48:05;;;;;;;14.65;2.78;;;14.00;99.90;;;;;;5084361;28;20075;-67
2022/06/19 03:50:31;;;;;;;10.75;2.30;;;14.10;99.90;;;;;;5083422;28;20029;-67
2022/06/19 03:52:57;;;;;;;11.43;2.15;;;14.10;99.90;;;;;;5067946;28;20070;-67
2022/06/19 03:55:22;;;;;;;10.85;2.67;;;14.40;99.90;;;;;;5084674;28;20505;-67
2022/06/19 03:57:48;;;;;;;15.07;2.78;;;14.10;99.90;;;;;;5065123;28;20057;-66
2022/06/19 04:00:18;;;;;;;16.25;2.53;;;14.00;99.90;;;;;;5081193;28;20047;-67
2022/06/19 04:02:44;;;;;;;15.90;2.90;;;13.60;99.90;;;;;;5082081;28;20032;-66
2022/06/19 04:05:13;;;;;;;16.60;2.45;;;13.30;99.90;;;;;;5082533;28;20486;-66
2022/06/19 04:07:45;;;;;;;10.70;2.33;;;13.60;99.90;;;;;;5083685;28;20143;-67
2022/06/19 04:10:11;;;;;;;17.23;3.35;;;13.30;99.90;;;;;;5081455;28;20040;-66
2022/06/19 04:12:36;;;;;;;12.00;2.25;;;13.50;99.90;;;;;;5081915;28;20432;-66
2022/06/19 04:15:03;;;;;;;17.63;3.65;;;13.40;99.90;;;;;;5081998;28;20092;-67
2022/06/19 04:17:29;;;;;;;18.42;2.25;;;;;;;;;;5081435;28;20048;-67
2022/06/19 04:19:54;;;;;;;17.17;3.33;;;13.40;99.90;;;;;;5083788;28;20037;-66
2022/06/19 04:22:20;;;;;;;14.93;2.50;;;13.50;99.90;;;;;;5084315;28;20040;-67
2022/06/19 04:24:46;;;;;;;18.40;3.47;;;13.40;99.90;;;;;;5084758;28;20048;-67
2022/06/19 04:27:11;;;;;;;11.13;2.25;;;13.60;99.90;;;;;;5083115;28;20067;-67
2022/06/19 04:29:37;;;;;;;9.05;2.50;;;13.60;99.90;;;;;;5067870;28;20047;-65
2022/06/19 04:32:03;;;;;;;15.77;2.67;;;;;;;;;;5073119;28;20032;-66
2022/06/19 04:34:28;;;;;;;14.40;3.13;;;13.60;99.90;;;;;;5085218;28;20124;-68
2022/06/19 04:36:54;;;;;;;14.50;2.65;;;13.80;99.90;;;;;;5085822;28;20423;-67
2022/06/19 04:39:20;;;;;;;25.45;3.75;;;;;;;;;;5093919;28;20062;-66
2022/06/19 04:41:46;;;;;;;11.80;2.45;;;13.70;99.90;;;;;;5080327;28;20040;-67
2022/06/19 04:44:17;;;;;;;10.43;2.10;;;13.70;99.90;;;;;;5036431;28;20048;-66
2022/06/19 04:46:43;;;;;;;13.10;2.55;;;13.60;99.90;;;;;;5056395;28;20048;-66
2022/06/19 04:49:09;;;;;;;18.55;3.63;;;13.80;99.90;;;;;;5077925;28;20062;-67
2022/06/19 04:51:35;;;;;;;13.52;2.40;;;;;;;;;;5074374;28;20093;-66
2022/06/19 04:54:01;;;;;;;19.15;2.20;;;;;;;;;;5073276;28;20049;-65
2022/06/19 04:56:27;;;;;;;16.02;2.67;;;;;;;;;;5075018;28;20343;-65
2022/06/19 04:58:53;;;;;;;14.00;2.42;;;13.70;99.90;;;;;;5073060;28;20052;-66
2022/06/19 05:01:23;;;;;;;10.63;1.92;;;13.70;99.90;;;;;;5071581;28;20343;-66
2022/06/19 05:03:51;;;;;;;15.80;2.25;;;13.60;99.90;;;;;;5070616;28;20088;-67
2022/06/19 05:06:17;;;;;;;13.70;2.80;;;;;;;;;;5070006;28;20113;-66
2022/06/19 05:08:43;;;;;;;14.20;2.35;;;;;;;;;;5071553;28;20059;-65
2022/06/19 05:11:10;;;;;;;14.65;2.75;;;13.80;99.90;;;;;;5070342;28;20541;-67
2022/06/19 05:13:36;;;;;;;13.25;2.80;;;13.80;99.90;;;;;;5071795;28;20044;-67
2022/06/19 05:16:05;;;;;;;14.45;2.78;;;13.50;99.90;;;;;;5070948;28;20038;-66
2022/06/19 05:18:32;;;;;;;15.60;2.63;;;13.80;99.90;;;;;;5071507;28;20048;-66
2022/06/19 05:21:01;;;;;;;10.02;2.97;;;13.70;99.90;;;;;;5072509;28;20048;-66
2022/06/19 05:23:31;;;;;;;13.68;2.13;;;13.70;99.90;;;;;;5070342;28;20044;-66
2022/06/19 05:26:11;;;;;;;11.50;2.60;;;13.60;99.90;;;;;;5070427;28;20036;-67
2022/06/19 05:28:37;;;;;;;12.13;3.20;;;13.60;99.90;;;;;;5080543;28;20414;-66
2022/06/19 05:31:03;;;;;;;14.90;3.00;;;13.60;99.90;;;;;;5084534;28;20043;-67
2022/06/19 05:33:31;;;;;;;13.55;2.15;;;13.50;99.90;;;;;;5066666;28;20032;-67
2022/06/19 05:35:57;;;;;;;10.02;2.83;;;;;;;;;;5078119;28;20036;-67
2022/06/19 05:38:23;;;;;;;13.18;3.28;;;13.50;99.90;;;;;;5075353;28;20127;-67
2022/06/19 05:40:51;;;;;;;16.52;2.30;;;13.50;99.90;;;;;;5082088;28;20435;-66
2022/06/19 05:43:17;;;;;;;11.20;2.20;;;13.50;99.90;;;;;;5083392;28;20787;-67
2022/06/19 05:45:53;;;;;;;11.55;2.50;;;13.70;99.90;;;;;;5073772;28;20131;-68
2022/06/19 05:48:19;;;;;;;17.65;2.72;;;;;;;;;;5074891;28;20079;-65
2022/06/19 05:50:45;;;;;;;13.15;2.83;;;13.50;99.90;;;;;;5069993;28;20098;-67
2022/06/19 05:53:11;;;;;;;14.18;3.25;;;13.50;99.90;;;;;;5078190;28;20576;-67
2022/06/19 05:55:37;;;;;;;16.20;2.53;;;13.60;99.90;;;;;;5067447;28;20499;-66
2022/06/19 05:58:03;;;;;;;16.10;2.55;;;;;;;;;;5044384;28;20060;-67
2022/06/19 06:00:29;;;;;;;19.17;3.55;;;;;;;;;;5070169;28;20511;-68
2022/06/19 06:02:55;;;;;;;19.02;3.85;;;;;;;;;;5045303;28;20966;-68
2022/06/19 06:05:21;;;;;;;11.70;2.60;;;13.60;99.90;;;;;;5053391;28;20066;-68
2022/06/19 06:07:49;;;;;;;17.70;2.83;;;;;;;;;;5049132;28;20044;-67
2022/06/19 06:10:15;;;;;;;13.70;2.85;;;13.70;99.90;;;;;;5048542;28;20583;-68
2022/06/19 06:12:41;;;;;;;23.20;2.80;;;;;;;;;;5051064;28;20035;-66
2022/06/19 06:15:07;;;;;;;15.63;2.97;;;;;;;;;;5044642;28;20052;-66
2022/06/19 06:17:33;;;;;;;15.13;3.58;;;;;;;;;;5051288;28;20051;-66
2022/06/19 06:19:59;;;;;;;18.10;3.22;;;;;;;;;;5059893;28;20036;-65
2022/06/19 06:22:25;;;;;;;17.17;3.42;;;13.50;99.90;;;;;;5042200;28;20056;-67
2022/06/19 06:24:51;;;;;;;14.75;2.50;;;;;;;;;;5065684;28;20418;-66
2022/06/19 06:27:17;;;;;;;18.92;2.58;;;;;;;;;;5048770;28;20083;-66
2022/06/19 06:29:43;;;;;;;19.35;2.78;;;;;;;;;;5056746;28;20074;-66
2022/06/19 06:32:09;;;;;;;23.35;3.95;;;;;;;;;;5050195;28;20041;-67
2022/06/19 06:34:35;;;;;;;17.88;2.85;;;;;;;;;;5055495;28;20067;-69
2022/06/19 06:37:01;;;;;;;13.40;2.60;;;;;;;;;;5046611;28;20483;-67
2022/06/19 06:39:27;;;;;;;17.10;3.10;;;;;;;;;;5050903;28;20119;-70
2022/06/19 06:41:53;;;;;;;25.45;4.07;;;;;;;;;;5055465;28;20032;-70
2022/06/19 06:44:19;;;;;;;15.85;2.95;;;;;;;;;;5055228;28;20410;-69
2022/06/19 06:46:44;;;;;;;13.45;2.97;;;;;;;;;;5057337;28;20047;-67
2022/06/19 06:49:10;;;;;;;11.60;2.45;;;;;;;;;;5065231;28;20047;-66
2022/06/19 06:51:36;;;;;;;20.40;3.15;;;;;;;;;;5057379;28;20032;-69
2022/06/19 06:54:02;;;;;;;16.33;3.05;;;13.80;99.90;;;;;;5058235;28;20470;-68
2022/06/19 06:56:33;;;;;;;13.07;2.88;;;14.00;99.90;;;;;;5060865;28;20159;-68
2022/06/19 06:58:59;;;;;;;19.20;3.42;;;;;;;;;;5052490;28;20099;-69
2022/06/19 07:01:25;;;;;;;15.98;2.65;;;;;;;;;;5044125;28;20127;-70
2022/06/19 07:03:54;;;;;;;15.88;3.00;;;13.90;99.90;;;;;;5050117;28;20044;-67
2022/06/19 07:06:21;;;;;;;16.13;2.70;;;13.90;99.90;;;;;;5054456;28;20160;-67
2022/06/19 07:08:47;;;;;;;18.05;3.55;;;;;;;;;;5055378;28;20140;-68
2022/06/19 07:11:49;;;;;;;19.30;2.83;;;13.80;99.90;;;;;;5053861;28;20519;-68
2022/06/19 07:14:17;;;;;;;19.05;2.70;;;13.80;99.90;;;;;;5021293;28;20045;-68
2022/06/19 07:16:43;;;;;;;27.10;6.18;;;;;;;;;;5045725;28;20775;-66
2022/06/19 07:19:10;;;;;;;14.57;2.70;;;13.90;99.90;;;;;;5092111;28;20048;-69
2022/06/19 07:21:36;;;;;;;10.95;2.22;;;;;;;;;;5071456;28;20441;-67
2022/06/19 07:24:02;;;;;;;12.05;3.00;;;;;;;;;;5055520;28;20049;-69
2022/06/19 07:26:29;;;;;;;13.43;2.78;;;;;;;;;;5063852;28;20083;-71
2022/06/19 07:28:55;;;;;;;14.07;2.28;;;13.80;99.90;;;;;;5058376;28;20037;-68
2022/06/19 07:31:21;;;;;;;20.45;2.75;;;;;;;;;;5077955;28;20043;-69
2022/06/19 07:33:47;;;;;;;15.18;2.10;;;;;;;;;;5070048;28;20554;-70
2022/06/19 07:36:19;;;;;;;13.43;2.60;;;13.80;99.90;;;;;;5077745;28;20040;-68
2022/06/19 07:38:44;;;;;;;13.18;2.83;;;13.90;99.90;;;;;;5076685;28;20177;-66
2022/06/19 07:41:11;;;;;;;14.90;2.35;;;13.90;99.90;;;;;;5085100;28;20123;-67
2022/06/19 07:43:37;;;;;;;19.15;3.35;;;;;;;;;;5063413;28;20114;-70
2022/06/19 07:46:02;;;;;;;13.82;2.25;;;13.80;99.90;;;;;;5058247;28;20087;-68
2022/06/19 07:51:13;;;;;;;16.92;2.55;;;13.80;99.90;;;;;;5086351;28;20048;-66
2022/06/19 07:53:38;;;;;;;15.98;3.28;;;13.90;99.90;;;;;;5083227;28;20036;-67
2022/06/19 07:56:04;;;;;;;8.70;2.00;;;13.90;99.90;;;;;;5088929;28;20105;-66
2022/06/19 07:58:30;;;;;;;22.65;3.10;;;13.90;99.90;;;;;;5082408;28;20409;-66
2022/06/19 08:00:56;;;;;;;12.73;2.47;;;;;;;;;;5083856;28;20036;-67
2022/06/19 08:03:22;;;;;;;16.08;2.35;;;;;;;;;;5088459;28;20036;-66
2022/06/19 08:05:48;;;;;;;14.98;2.45;;;13.80;99.90;;;;;;5087697;28;20109;-65
2022/06/19 08:08:22;;;;;;;13.07;2.10;;;14.00;99.90;;;;;;5087193;28;20048;-66
2022/06/19 08:10:50;;;;;;;10.02;2.28;;;14.10;99.90;;;;;;5090626;28;20071;-67
2022/06/19 08:13:20;;;;;;;16.02;2.78;;;14.10;99.90;;;;;;5084740;28;20032;-66
2022/06/19 08:15:50;;;;;;;13.70;2.10;;;14.10;99.90;;;;;;5085920;28;20046;-67
2022/06/19 08:18:17;;;;;;;13.27;3.25;;;14.10;99.90;;;;;;5085168;28;20302;-66
2022/06/19 08:20:43;;;;;;;11.25;2.17;;;;;;;;;;5090363;28;20072;-67
2022/06/19 08:23:09;;;;;;;14.88;2.05;;;14.10;99.90;;;;;;5080560;28;20453;-66
2022/06/19 08:25:34;;;;;;;10.43;2.00;;;14.00;99.90;;;;;;5067757;28;20067;-68
2022/06/19 08:28:01;;;;;;;15.98;2.65;;;;;;;;;;5054711;28;20040;-68
2022/06/19 08:30:39;;;;;;;22.92;4.18;;;14.00;99.90;;;;;;5068099;28;20151;-66
2022/06/19 08:33:07;;;;;;;15.52;2.60;;;;;;;;;;5081847;28;20042;-68
2022/06/19 08:35:36;;;;;;;11.15;2.15;;;14.10;99.90;;;;;;5068836;28;20052;-70
2022/06/19 08:38:06;;;;;;;14.70;2.53;;;14.20;99.90;;;;;;5076233;28;20047;-70
2022/06/19 08:40:32;;;;;;;17.92;3.10;;;;;;;;;;5068147;28;20048;-69
2022/06/19 08:43:03;;;;;;;14.52;2.47;;;14.20;99.90;;;;;;5054668;28;20044;-67
2022/06/19 08:45:44;;;;;;;18.08;2.88;;;14.10;99.90;;;;;;5072066;28;20131;-67
2022/06/19 08:48:31;;;;;;;17.05;3.00;;;14.20;99.90;;;;;;5082190;28;20051;-67
2022/06/19 08:51:02;;;;;;;12.85;2.03;;;14.20;99.90;;;;;;5076780;28;20033;-67
2022/06/19 08:53:43;;;;;;;13.43;2.15;;;14.10;99.90;;;;;;5088700;28;20509;-67
2022/06/19 08:56:21;;;;;;;10.52;2.50;;;14.20;99.90;;;;;;5082491;28;20046;-68
2022/06/19 08:59:13;;;;;;;7.70;2.03;;;14.30;99.90;;;;;;5084679;28;20418;-67
2022/06/19 09:01:49;;;;;;;11.85;2.28;;;14.10;99.90;;;;;;5081551;28;20900;-67
2022/06/19 09:07:33;;;;;;;14.07;2.60;;;14.30;99.90;;;;;;5072874;28;20547;-67
2022/06/19 09:10:37;;;;;;;14.32;2.40;;;14.20;99.90;;;;;;5078255;28;20044;-67
2022/06/19 09:13:03;;;;;;;13.40;2.08;;;;;;;;;;5024106;28;20084;-68
2022/06/19 09:15:43;;;;;;;13.07;1.77;;;14.20;99.90;;;;;;5047204;28;20557;-68
2022/06/19 09:18:22;;;;;;;13.98;2.05;;;14.30;99.90;;;;;;5059489;28;20084;-67
2022/06/19 09:20:59;;;;;;;13.85;2.20;;;14.30;99.90;;;;;;5056563;28;20068;-68
2022/06/19 09:23:25;;;;;;;15.30;2.45;;;;;;;;;;5053625;28;20045;-67
2022/06/19 09:25:58;;;;;;;9.82;2.42;;;14.60;99.90;;;;;;5056962;28;20036;-67
2022/06/19 09:28:33;;;;;;;8.23;1.67;;;14.40;99.90;;;;;;5070736;28;20048;-67
2022/06/19 09:31:03;;;;;;;;;;;14.80;99.90;;;;;;5040992;28;20053;-67
2022/06/19 09:33:52;;;;;;;12.85;2.35;;;14.60;99.90;;;;;;5052236;28;19975;-67
2022/06/19 09:36:26;;;;;;;8.55;1.45;;;14.70;99.90;;;;;;5049469;28;20494;-68
2022/06/19 09:39:18;;;;;;;9.47;2.27;;;14.80;99.90;;;;;;5051665;28;20041;-66
2022/06/19 09:41:51;;;;;;;9.88;1.85;;;14.80;99.90;;;;;;5041757;28;20053;-67
2022/06/19 09:44:54;;;;;;;8.23;1.88;;;15.00;99.90;;;;;;5052287;28;20147;-66
2022/06/19 09:47:28;;;;;;;15.18;1.90;;;15.10;99.90;;;;;;5091290;28;20497;-66
2022/06/19 09:50:12;;;;;;;10.15;1.80;;;15.00;99.90;;;;;;5079778;28;20123;-66
2022/06/19 09:52:45;;;;;;;9.00;2.23;;;15.10;99.90;;;;;;5075523;28;20383;-66
2022/06/19 09:55:25;;;;;;;7.85;1.55;;;15.30;99.90;;;;;;5081667;28;20136;-66
2022/06/19 09:57:58;;;;;;;5.95;1.85;;;15.00;99.90;;;;;;5076682;28;20044;-67
2022/06/19 10:00:31;;;;;;;7.75;2.22;;;15.20;99.90;;;;;;5081781;28;20422;-67
2022/06/19 10:03:04;;;;;;;9.55;1.80;;;15.20;99.90;;;;;;5078762;28;20071;-66
2022/06/19 10:05:54;;;;;;;5.60;1.38;;;15.10;99.90;;;;;;5077289;28;20044;-67
2022/06/19 10:08:44;;;;;;;16.27;1.75;;;15.00;99.90;;;;;;5080471;28;20952;-66
2022/06/19 10:11:22;;;;;;;8.57;1.70;;;15.00;99.90;;;;;;5079293;28;20159;-66
2022/06/19 10:14:03;;;;;;;8.57;2.10;;;15.10;99.90;;;;;;5079501;28;20048;-66
2022/06/19 10:16:36;;;;;;;6.22;1.30;;;15.10;99.90;;;;;;5083869;28;20409;-66
2022/06/19 10:19:13;;;;;;;10.30;1.63;;;15.20;99.90;;;;;;5077991;28;20055;-68
2022/06/19 10:22:13;;;;;;;6.32;1.33;;;15.20;99.90;;;;;;5055710;28;20067;-67
2022/06/19 10:24:48;;;;;;;9.38;1.83;;;15.30;99.90;;;;;;5059185;28;20052;-68
2022/06/19 10:27:41;;;;;;;8.23;2.13;;;15.20;99.90;;;;;;5034027;28;20582;-70
2022/06/19 10:30:27;;;;;;;7.30;1.38;;;15.50;99.90;;;;;;5079017;28;20045;-69
2022/06/19 10:33:22;;;;;;;5.15;1.35;;;15.40;99.90;;;;;;5057105;28;20053;-68
2022/06/19 10:36:06;;;;;;;8.23;1.40;;;15.40;99.90;;;;;;5052284;28;20534;-71
2022/06/19 10:38:50;;;;;;;4.85;1.50;;;15.40;99.90;;;;;;5050723;28;20045;-70
2022/06/19 10:45:01;;;;;;;7.72;2.35;;;15.40;99.90;;;;;;5078805;28;20048;-70
2022/06/19 10:47:49;;;;;;;6.97;1.10;;;15.40;99.90;;;;;;5071777;28;20079;-68
2022/06/19 10:50:34;;;;;;;5.60;1.25;;;15.40;99.90;;;;;;5069143;28;20040;-70
2022/06/19 10:53:33;;;;;;;5.15;1.25;;;15.50;99.90;;;;;;5063105;28;20036;-65
2022/06/19 10:56:05;;;;;;;4.30;1.20;;;15.50;99.90;;;;;;5057950;28;20041;-69
2022/06/19 10:58:30;;;;;;;5.82;1.25;;;15.50;99.90;;;;;;5062770;28;20057;-66
2022/06/19 11:00:59;;;;;;;6.00;1.52;;;15.70;99.90;;;;;;5068006;28;20040;-66
2022/06/19 11:06:32;;;;;;;3.92;0.80;;;15.60;99.90;;;;;;5076377;28;20055;-68
2022/06/19 11:09:03;;;;;;;6.15;1.35;;;15.70;99.90;;;;;;5078018;28;20567;-67
2022/06/19 11:11:31;;;;;;;10.48;1.92;;;15.70;99.90;;;;;;5073107;28;20074;-67
2022/06/19 11:14:08;;;;;;;6.30;1.17;;;15.70;99.90;;;;;;5077743;28;20111;-69
2022/06/19 11:16:56;;;;;;;7.10;1.20;;;15.60;99.90;;;;;;5072830;28;20122;-67
2022/06/19 11:19:34;;;;;;;4.60;0.93;;;15.60;99.90;;;;;;5060994;28;20047;-68
2022/06/19 11:22:01;;;;;;;4.68;0.98;;;15.60;99.90;;;;;;5077558;28;20035;-68
2022/06/19 11:24:30;;;;;;;4.95;1.27;;;15.50;99.90;;;;;;5077729;28;20374;-68
2022/06/19 11:26:57;;;;;;;5.32;1.15;;;15.60;99.90;;;;;;5068127;28;20121;-65
2022/06/19 11:29:25;;;;;;;7.63;2.03;;;15.50;99.90;;;;;;5077393;28;20040;-68
2022/06/19 11:32:15;;;;;;;5.90;1.63;;;15.60;99.90;;;;;;5073819;28;20075;-68
2022/06/19 11:34:44;;;;;;;9.07;1.52;;;15.50;99.90;;;;;;5079744;28;20489;-65
2022/06/19 11:37:23;;;;;;;4.57;1.10;;;15.60;99.90;;;;;;5076447;28;20036;-67
2022/06/19 11:39:58;;;;;;;7.75;2.20;;;15.60;99.90;;;;;;5077032;28;20465;-67
2022/06/19 11:42:34;;;;;;;3.47;0.98;;;15.60;99.90;;;;;;5072193;28;20087;-67
2022/06/19 11:45:15;;;;;;;5.07;1.10;;;15.50;99.90;;;;;;5077125;28;20040;-67
2022/06/19 11:47:43;;;;;;;3.42;0.90;;;15.60;99.90;;;;;;5077706;28;20125;-67
2022/06/19 11:50:25;;;;;;;6.50;1.00;;;15.60;99.90;;;;;;5080860;28;20063;-69
2022/06/19 11:52:58;;;;;;;6.57;1.45;;;15.80;99.90;;;;;;5078073;28;20032;-68
2022/06/19 11:55:35;;;;;;;3.83;0.85;;;15.50;99.90;;;;;;5078247;28;20453;-70
2022/06/19 11:58:21;;;;;;;4.80;0.95;;;15.70;99.90;;;;;;5073468;28;20117;-67
2022/06/19 12:01:06;;;;;;;4.78;0.88;;;15.70;99.90;;;;;;5062669;28;20457;-68
2022/06/19 12:03:42;;;;;;;2.80;0.95;;;15.80;99.90;;;;;;5065571;28;20035;-66
2022/06/19 12:06:10;;;;;;;2.78;0.85;;;15.90;99.90;;;;;;5073289;28;20400;-67
2022/06/19 12:08:55;;;;;;;2.03;0.70;;;16.00;99.90;;;;;;5071882;28;20425;-70
2022/06/19 12:11:38;;;;;;;3.17;1.10;;;15.90;99.90;;;;;;5074073;28;20057;-70
2022/06/19 12:14:10;;;;;;;3.63;1.00;;;15.90;99.90;;;;;;5074708;28;20074;-70
2022/06/19 12:16:37;;;;;;;4.05;0.80;;;16.00;99.90;;;;;;5046285;28;20040;-69
2022/06/19 12:19:32;;;;;;;2.10;0.80;;;16.00;99.90;;;;;;5082592;28;20468;-68
2022/06/19 12:22:01;;;;;;;;;;;16.00;99.90;;;;;;5080633;28;20048;-70
2022/06/19 12:24:55;;;;;;;3.95;1.00;;;16.10;99.90;;;;;;5075750;28;19943;-69
2022/06/19 12:27:23;;;;;;;3.67;0.90;;;16.30;99.90;;;;;;5066940;28;20559;-70
2022/06/19 12:29:54;;;;;;;4.55;0.88;;;16.40;99.90;;;;;;5075801;28;20135;-68
2022/06/19 12:32:30;;;;;;;3.92;0.80;;;16.40;99.90;;;;;;5082925;28;20109;-67
2022/06/19 12:35:02;;;;;;;3.53;1.02;;;16.50;99.90;;;;;;5078168;28;20032;-68
2022/06/19 12:37:30;;;;;;;3.05;0.70;;;16.50;99.90;;;;;;5081988;28;20048;-67
2022/06/19 12:39:56;;;;;;;5.18;1.10;;;16.70;99.90;;;;;;5081143;28;20036;-68
2022/06/19 12:42:27;;;;;;;4.80;0.90;;;16.60;99.90;;;;;;5068649;28;20044;-67
2022/06/19 12:45:02;;;;;;;6.53;0.93;;;16.70;99.90;;;;;;5077113;28;20040;-68
2022/06/19 12:48:06;;;;;;;2.80;1.08;;;16.70;99.90;;;;;;5064802;28;20512;-67
2022/06/19 12:51:04;;;;;;;8.02;1.20;;;16.80;99.90;;;;;;5065806;28;20483;-67
2022/06/19 12:53:57;;;;;;;7.47;1.08;;;16.80;99.90;;;;;;5057228;28;20472;-67
2022/06/19 12:56:41;;;;;;;6.05;1.23;;;16.70;99.90;;;;;;5054155;28;20167;-67
2022/06/19 12:59:39;;;;;;;6.10;1.27;;;16.50;99.90;;;;;;5062365;28;20059;-67
2022/06/19 13:02:35;;;;;;;6.68;1.08;;;16.60;99.90;;;;;;5068240;28;20568;-67
2022/06/19 13:05:22;;;;;;;5.07;1.17;;;16.80;99.90;;;;;;5079162;28;20047;-67
2022/06/19 13:08:03;;;;;;;4.45;1.40;;;16.90;99.90;;;;;;5060879;28;20056;-67
2022/06/19 13:10:51;;;;;;;5.63;1.00;;;16.60;99.90;;;;;;5050766;28;20433;-67
2022/06/19 13:13:58;;;;;;;3.72;0.75;;;16.70;99.90;;;;;;5056946;28;20048;-67
2022/06/19 13:16:48;;;;;;;6.38;1.00;;;17.00;99.90;;;;;;5041459;28;20484;-67
2022/06/19 13:19:42;;;;;;;8.55;1.23;;;16.90;99.90;;;;;;5049899;28;20513;-67
2022/06/19 13:22:30;;;;;;;6.45;1.30;;;16.70;99.90;;;;;;5055670;28;20485;-66
2022/06/19 13:25:08;;;;;;;5.97;1.10;;;16.70;99.90;;;;;;5056168;28;20037;-67
2022/06/19 13:27:51;;;;;;;4.30;1.00;;;16.90;99.90;;;;;;5047059;28;20063;-67
2022/06/19 13:30:40;;;;;;;4.05;0.80;;;16.60;99.90;;;;;;5066468;28;20055;-68
2022/06/19 13:33:47;;;;;;;6.25;1.15;;;16.70;99.90;;;;;;5059585;28;20387;-67
2022/06/19 13:36:25;;;;;;;5.28;0.85;;;16.50;99.90;;;;;;5055600;28;20055;-67